Saint Joseph, MO (64507)

11:20 AM CDT on March 30, 2017 (GMT -0500)
KMOSTJOS3 | | Change Station

Elev 965 ft 39.77 °N, 94.82 °W | Updated 30 seconds ago

Overcast
Overcast
48.0 °F
Feels Like 48 °F
N
2.7
Wind Variable Wind from ENE
Gusts 3.6 mph

Today
High -- | Low -- °F
--% Chance of Precip.
Yesterday
High -- | Low -- °F
Precip. -- in
Pressure 29.61 in
Visibility 10.0 miles
Clouds Overcast 800 ft
Windchill 48 °F
Dew Point 47 °F
Humidity 97%
Rainfall 0.00 in
Snow Depth Not available.
7:06 AM 7:41 PM
Waxing Crescent, 9% visible
METAR KSTJ 301553Z 01011KT 10SM OVC008 08/08 A2961 RMK AO2 RAE1458B25E42 CIG 006V011 SLP025 P0000 T00830078
Pressure 29.61 in
Visibility 10.0 miles
Clouds Overcast 800 ft
Windchill 48 °F
Dew Point 47 °F
Humidity 97%
Rainfall 0.00 in
Snow Depth Not available.
7:06 AM 7:41 PM
Waxing Crescent, 9% visible
METAR KSTJ 301553Z 01011KT 10SM OVC008 08/08 A2961 RMK AO2 RAE1458B25E42 CIG 006V011 SLP025 P0000 T00830078

Get Severe Weather Alerts

Thanks for signing up!

Be on the lookout for a verification email in your inbox.

You'll start receiving the daily forecast at 8 AM.

×

10-Day Weather Forecast

Almanac

Astronomy

Mar. 30, 2017 Rise Set
Actual Time
Civil Twilight
Nautical Twilight
Astronomical Twilight
Moon
Length of Visible Light
Length of Day
Tomorrow will be .
, % of the Moon is Illuminated

Today's Extremes

State Highs State Lows

Community

WunderPhotos

Upload Photos

1,962,540 photos uploaded!

WunderBlog® & News

Nearby

Air Quality

  Air Quality AQ Index Pollutant
Not available.

Snow Depth

Station Depth Elevation

Earthquake Activity

City Distance Mag. Time & Date
Minimum magnitude displayed is 2.5.

Earthquake Activity

City Distance Mag. Time & Date
Minimum magnitude displayed is 2.5.

Coastal Water Temperatures

Place Temperature

Stations

Nearby Weather Stations

Station Location Temp. Windchill Dew Point Humidity Wind Precip. Elev Updated Type
                   

Watches & Warnings

There are currently no watches in effect.